Time;durP1;ratioP1;P1;durP2;ratioP2;P2;SDS_P1;SDS_P2;PMS_P1;PMS_P2;Temp;Humidity;BMP_temperature;BMP_pressure;BME280_temperature;BME280_humidity;BME280_pressure;Samples;Min_cycle;Max_cycle;Signal;HPM_P1;HPM_P2
2022/09/04 00:01:24;;;;;;;5.75;2.17;;;17.30;99.90;;;;;;5017147;28;20053;-82
2022/09/04 00:04:16;;;;;;;3.30;1.77;;;17.20;99.90;;;;;;4981357;28;20132;-81
2022/09/04 00:07:17;;;;;;;3.50;1.63;;;17.20;99.90;;;;;;5017634;28;20042;-81
2022/09/04 00:10:02;;;;;;;4.15;2.03;;;17.20;99.90;;;;;;5006590;28;20049;-84
2022/09/04 00:12:36;;;;;;;6.97;1.98;;;17.10;99.90;;;;;;5019204;28;20054;-83
2022/09/04 00:15:18;;;;;;;3.83;1.48;;;17.20;99.90;;;;;;5016887;28;20698;-83
2022/09/04 00:17:55;;;;;;;6.50;2.10;;;17.10;99.90;;;;;;5018674;28;20108;-84
2022/09/04 00:20:27;;;;;;;2.28;1.55;;;17.10;99.90;;;;;;5019152;28;20129;-83
2022/09/04 00:23:08;;;;;;;3.45;1.88;;;17.10;99.90;;;;;;5014531;28;20073;-84
2022/09/04 00:25:58;;;;;;;3.80;1.75;;;17.10;99.90;;;;;;5001118;28;20088;-83
2022/09/04 00:28:57;;;;;;;10.80;2.07;;;17.00;99.90;;;;;;5018695;28;20133;-83
2022/09/04 00:31:38;;;;;;;4.43;1.70;;;17.00;99.90;;;;;;5003894;28;20484;-83
2022/09/04 00:34:11;;;;;;;3.80;1.85;;;17.00;99.90;;;;;;5016514;28;20481;-83
2022/09/04 00:36:41;;;;;;;5.00;1.73;;;17.00;99.90;;;;;;5019663;28;20045;-81
2022/09/04 00:39:46;;;;;;;2.05;1.70;;;16.90;99.90;;;;;;5016105;28;20046;-81
2022/09/04 00:42:55;;;;;;;3.40;1.70;;;16.90;99.90;;;;;;5019362;28;20132;-83
2022/09/04 00:45:49;;;;;;;8.75;2.40;;;16.90;99.90;;;;;;4982499;28;20081;-83
2022/09/04 00:48:46;;;;;;;4.13;2.05;;;16.90;99.90;;;;;;5014604;28;20136;-83
2022/09/04 00:51:16;;;;;;;6.82;2.20;;;16.90;99.90;;;;;;5018437;28;20084;-83
2022/09/04 00:53:53;;;;;;;4.40;2.10;;;16.90;99.90;;;;;;5018614;28;20053;-83
2022/09/04 00:56:39;;;;;;;9.38;2.05;;;16.80;99.90;;;;;;5018099;28;20096;-83
2022/09/04 00:59:33;;;;;;;5.00;2.72;;;16.80;99.90;;;;;;5019500;28;20081;-83
2022/09/04 01:02:21;;;;;;;4.75;1.75;;;16.80;99.90;;;;;;5011614;28;20050;-84
2022/09/04 01:05:06;;;;;;;4.07;2.00;;;16.80;99.90;;;;;;5021747;28;20046;-83
2022/09/04 01:07:58;;;;;;;8.48;2.05;;;16.90;99.90;;;;;;5016556;28;20173;-84
2022/09/04 01:10:44;;;;;;;3.15;1.65;;;16.80;99.90;;;;;;5019347;28;20091;-83
2022/09/04 01:13:21;;;;;;;9.60;2.92;;;16.80;99.90;;;;;;5000476;28;20106;-83
2022/09/04 01:16:05;;;;;;;6.47;2.10;;;16.80;99.90;;;;;;5002007;28;20133;-83
2022/09/04 01:18:42;;;;;;;6.97;1.65;;;16.70;99.90;;;;;;5016101;28;20049;-83
2022/09/04 01:21:14;;;;;;;3.30;2.10;;;16.80;99.90;;;;;;5018478;28;20061;-83
2022/09/04 01:23:48;;;;;;;4.43;2.00;;;16.70;99.90;;;;;;5017321;28;20077;-84
2022/09/04 01:26:35;;;;;;;5.55;2.63;;;16.70;99.90;;;;;;5018282;28;20108;-83
2022/09/04 01:29:39;;;;;;;4.25;2.33;;;16.70;99.90;;;;;;5016055;28;20081;-82
2022/09/04 01:32:11;;;;;;;2.58;1.48;;;16.70;99.90;;;;;;5019203;28;20077;-83
2022/09/04 01:34:51;;;;;;;3.92;2.42;;;16.80;99.90;;;;;;5019173;28;20057;-83
2022/09/04 01:37:49;;;;;;;2.80;2.10;;;16.70;99.90;;;;;;5017094;28;20146;-84
2022/09/04 01:40:28;;;;;;;4.93;2.08;;;16.80;99.90;;;;;;5009073;28;20092;-82
2022/09/04 01:43:17;;;;;;;2.55;1.90;;;16.70;99.90;;;;;;5009217;28;20060;-84
2022/09/04 01:46:00;;;;;;;7.60;1.98;;;16.70;99.90;;;;;;5017241;28;20113;-83
2022/09/04 01:48:40;;;;;;;2.63;2.42;;;16.70;99.90;;;;;;5015697;28;20052;-82
2022/09/04 01:51:43;;;;;;;4.57;1.92;;;16.70;99.90;;;;;;5002217;28;20116;-83
2022/09/04 01:54:17;;;;;;;6.47;2.13;;;16.60;99.90;;;;;;4994846;28;20061;-83
2022/09/04 01:56:47;;;;;;;4.40;2.20;;;16.70;99.90;;;;;;5018438;28;20053;-84
2022/09/04 01:59:24;;;;;;;2.83;2.22;;;16.60;99.90;;;;;;5013472;28;20077;-83
2022/09/04 02:02:24;;;;;;;2.95;1.85;;;16.60;99.90;;;;;;5017990;28;20141;-83
2022/09/04 02:05:09;;;;;;;3.35;2.20;;;16.60;99.90;;;;;;5018326;28;20512;-83
2022/09/04 02:07:45;;;;;;;2.97;1.75;;;16.50;99.90;;;;;;5018927;28;20129;-83
2022/09/04 02:10:29;;;;;;;2.42;2.10;;;16.50;99.90;;;;;;5018844;28;20049;-84
2022/09/04 02:13:21;;;;;;;5.72;2.22;;;16.50;99.90;;;;;;5014841;28;20048;-83
2022/09/04 02:16:25;;;;;;;4.40;1.80;;;16.40;99.90;;;;;;5019236;28;20085;-84
2022/09/04 02:19:17;;;;;;;9.75;2.33;;;16.40;99.90;;;;;;5014867;28;20081;-83
2022/09/04 02:21:54;;;;;;;2.42;2.10;;;16.40;99.90;;;;;;5019257;28;20117;-84
2022/09/04 02:24:34;;;;;;;6.30;2.05;;;16.40;99.90;;;;;;5016552;28;20085;-81
2022/09/04 02:27:14;;;;;;;4.65;2.10;;;16.40;99.90;;;;;;5015842;28;20054;-84
2022/09/04 02:30:07;;;;;;;5.50;2.17;;;16.40;99.90;;;;;;5018016;28;20052;-83
2022/09/04 02:32:37;;;;;;;5.82;2.40;;;16.40;99.90;;;;;;5021307;28;20046;-81
2022/09/04 02:35:20;;;;;;;5.97;2.67;;;16.40;99.90;;;;;;5021913;28;20081;-83
2022/09/04 02:38:07;;;;;;;4.75;2.22;;;16.40;99.90;;;;;;5011669;28;20050;-83
2022/09/04 02:40:46;;;;;;;4.15;2.33;;;16.40;99.90;;;;;;5013582;28;20089;-82
2022/09/04 02:43:35;;;;;;;3.40;2.30;;;16.40;99.90;;;;;;5016537;28;20724;-83
2022/09/04 02:46:21;;;;;;;4.22;2.25;;;16.30;99.90;;;;;;5016582;28;20077;-83
2022/09/04 02:49:07;;;;;;;3.80;2.03;;;16.30;99.90;;;;;;5015404;28;20050;-83
2022/09/04 02:52:12;;;;;;;4.43;2.17;;;16.30;99.90;;;;;;5015195;28;20058;-82
2022/09/04 02:55:19;;;;;;;3.53;2.10;;;16.30;99.90;;;;;;5011591;28;20061;-83
2022/09/04 02:58:13;;;;;;;3.72;2.42;;;16.20;99.90;;;;;;5014965;28;20567;-82
2022/09/04 03:00:54;;;;;;;4.45;2.85;;;16.20;99.90;;;;;;4995939;28;20086;-83
2022/09/04 03:03:30;;;;;;;2.88;2.10;;;16.20;99.90;;;;;;4996414;28;20454;-84
2022/09/04 03:06:08;;;;;;;4.10;2.22;;;16.20;99.90;;;;;;4989989;28;20077;-84
2022/09/04 03:09:02;;;;;;;4.57;2.08;;;16.10;99.90;;;;;;5014748;28;20103;-84
2022/09/04 03:11:49;;;;;;;6.78;2.17;;;16.10;99.90;;;;;;5015864;28;20045;-83
2022/09/04 03:14:33;;;;;;;5.97;1.88;;;16.10;99.90;;;;;;5022522;28;20073;-83
2022/09/04 03:17:12;;;;;;;7.38;2.38;;;16.10;99.90;;;;;;5024749;28;20049;-83
2022/09/04 03:19:49;;;;;;;4.13;2.10;;;16.10;99.90;;;;;;5023559;28;20054;-83
2022/09/04 03:22:27;;;;;;;4.85;1.95;;;16.10;99.90;;;;;;5023813;28;20364;-83
2022/09/04 03:25:08;;;;;;;3.28;2.63;;;16.10;99.90;;;;;;4997814;28;20140;-83
2022/09/04 03:27:35;;;;;;;9.20;2.78;;;16.00;99.90;;;;;;5013133;28;20061;-83
2022/09/04 03:30:05;;;;;;;4.05;2.47;;;16.00;99.90;;;;;;5016358;28;20538;-83
2022/09/04 03:32:31;;;;;;;4.32;2.33;;;16.00;99.90;;;;;;5012830;28;20141;-83
2022/09/04 03:35:05;;;;;;;3.40;2.67;;;16.00;99.90;;;;;;5016569;28;20046;-83
2022/09/04 03:37:41;;;;;;;4.68;2.83;;;16.00;99.90;;;;;;5015511;28;20050;-83
2022/09/04 03:40:41;;;;;;;4.80;2.50;;;16.00;99.90;;;;;;5015706;28;20504;-82
2022/09/04 03:43:21;;;;;;;3.03;2.30;;;16.00;99.90;;;;;;4982200;28;20578;-83
2022/09/04 03:46:10;;;;;;;6.30;2.75;;;16.00;99.90;;;;;;5014991;28;20132;-83
2022/09/04 03:49:04;;;;;;;4.43;2.58;;;15.90;99.90;;;;;;4997959;28;20062;-83
2022/09/04 03:51:54;;;;;;;3.60;2.47;;;15.90;99.90;;;;;;5014619;28;20081;-83
2022/09/04 03:54:59;;;;;;;5.78;2.67;;;15.90;99.90;;;;;;5011549;28;20164;-82
2022/09/04 03:58:00;;;;;;;3.95;2.20;;;15.90;99.90;;;;;;5012346;28;20128;-83
2022/09/04 04:00:49;;;;;;;4.22;2.67;;;15.80;99.90;;;;;;5015686;28;20050;-83
2022/09/04 04:03:38;;;;;;;7.65;2.95;;;15.90;99.90;;;;;;5016974;28;20054;-82
2022/09/04 04:06:17;;;;;;;7.45;2.53;;;15.80;99.90;;;;;;5014905;28;20076;-82
2022/09/04 04:08:55;;;;;;;5.53;2.63;;;15.80;99.90;;;;;;5015103;28;20062;-84
2022/09/04 04:12:05;;;;;;;7.68;3.35;;;15.80;99.90;;;;;;5019448;28;20052;-83
2022/09/04 04:14:38;;;;;;;4.03;2.33;;;15.80;99.90;;;;;;5019060;28;20050;-83
2022/09/04 04:17:07;;;;;;;5.43;3.00;;;15.80;99.90;;;;;;5019427;28;20052;-83
2022/09/04 04:20:10;;;;;;;8.43;2.50;;;15.70;99.90;;;;;;5009333;28;20066;-83
2022/09/04 04:23:01;;;;;;;4.70;2.67;;;15.70;99.90;;;;;;5018727;28;20546;-83
2022/09/04 04:25:47;;;;;;;8.30;3.20;;;15.70;99.90;;;;;;5000899;28;20409;-82
2022/09/04 04:28:58;;;;;;;5.57;3.15;;;15.70;99.90;;;;;;4998744;28;20054;-84
2022/09/04 04:31:28;;;;;;;5.95;2.65;;;15.70;99.90;;;;;;4994343;28;20065;-83
2022/09/04 04:34:30;;;;;;;8.80;3.95;;;15.70;99.90;;;;;;5016943;28;20050;-82
2022/09/04 04:37:09;;;;;;;8.57;3.15;;;15.60;99.90;;;;;;5010926;28;20129;-82
2022/09/04 04:39:57;;;;;;;3.58;2.58;;;15.60;99.90;;;;;;5012033;28;20093;-83
2022/09/04 04:42:30;;;;;;;5.43;3.08;;;15.60;99.90;;;;;;5013639;28;20061;-83
2022/09/04 04:48:36;;;;;;;3.10;2.50;;;15.60;99.90;;;;;;5018721;28;20136;-83
2022/09/04 04:51:39;;;;;;;11.38;3.08;;;15.60;99.90;;;;;;5017743;28;20046;-83
2022/09/04 04:54:44;;;;;;;5.20;2.83;;;15.50;99.90;;;;;;5013353;28;20053;-83
2022/09/04 04:57:34;;;;;;;6.40;2.83;;;15.60;99.90;;;;;;4997514;28;20566;-82
2022/09/04 05:00:11;;;;;;;5.50;2.95;;;15.60;99.90;;;;;;5013748;28;20503;-83
2022/09/04 05:02:59;;;;;;;3.10;2.70;;;15.60;99.90;;;;;;5012492;28;20058;-83
2022/09/04 05:05:54;;;;;;;4.63;3.13;;;15.60;99.90;;;;;;5001012;28;20120;-83
2022/09/04 05:08:28;;;;;;;5.88;2.65;;;15.60;99.90;;;;;;5016264;28;20089;-82
2022/09/04 05:11:01;;;;;;;4.72;2.70;;;15.50;99.90;;;;;;5016680;28;20107;-83
2022/09/04 05:13:58;;;;;;;6.75;3.33;;;15.50;99.90;;;;;;5017372;28;20077;-84
2022/09/04 05:16:42;;;;;;;7.88;2.90;;;15.50;99.90;;;;;;5018204;28;20046;-83
2022/09/04 05:19:25;;;;;;;3.80;2.85;;;15.50;99.90;;;;;;5018727;28;20045;-83
2022/09/04 05:22:10;;;;;;;8.18;3.58;;;15.50;99.90;;;;;;5018833;28;20115;-84
2022/09/04 05:24:47;;;;;;;4.15;2.55;;;15.60;99.90;;;;;;4994158;28;20077;-83
2022/09/04 05:27:19;;;;;;;6.75;2.90;;;15.60;99.90;;;;;;5016624;28;20472;-82
2022/09/04 05:29:51;;;;;;;9.93;2.72;;;15.60;99.90;;;;;;5016428;28;20427;-83
2022/09/04 05:32:32;;;;;;;7.40;2.88;;;15.60;99.90;;;;;;5013261;28;20053;-83
2022/09/04 05:35:21;;;;;;;5.50;3.67;;;15.70;99.90;;;;;;4987535;28;20106;-84
2022/09/04 05:38:06;;;;;;;5.60;3.10;;;15.70;99.90;;;;;;4971370;28;20062;-83
2022/09/04 05:40:51;;;;;;;11.75;4.47;;;15.70;99.90;;;;;;5017654;28;20060;-84
2022/09/04 05:43:29;;;;;;;8.02;4.03;;;15.80;99.90;;;;;;5003171;28;20078;-83
2022/09/04 05:46:08;;;;;;;7.10;3.47;;;15.80;99.90;;;;;;5015290;28;20049;-83
2022/09/04 05:49:04;;;;;;;5.07;3.20;;;15.80;99.90;;;;;;5021234;28;20085;-82
2022/09/04 05:51:47;;;;;;;5.47;2.67;;;15.80;99.90;;;;;;5021558;28;20133;-83
2022/09/04 05:54:36;;;;;;;4.75;2.63;;;15.80;99.90;;;;;;5025835;28;20113;-84
2022/09/04 05:57:37;;;;;;;10.32;2.50;;;15.90;99.90;;;;;;5018771;28;20080;-82
2022/09/04 06:00:15;;;;;;;5.50;2.72;;;15.90;99.90;;;;;;5012010;28;20088;-83
2022/09/04 06:03:04;;;;;;;5.10;3.13;;;15.90;99.90;;;;;;5017609;28;20053;-82
2022/09/04 06:05:37;;;;;;;3.97;3.47;;;15.90;99.90;;;;;;5015331;28;20087;-84
2022/09/04 06:08:42;;;;;;;5.22;3.40;;;16.00;99.90;;;;;;5016010;28;20092;-83
2022/09/04 06:11:35;;;;;;;4.95;4.07;;;16.00;99.90;;;;;;5007880;28;20045;-83
2022/09/04 06:14:28;;;;;;;4.88;3.67;;;16.00;99.90;;;;;;5017301;28;20046;-83
2022/09/04 06:17:17;;;;;;;6.75;4.03;;;16.00;99.90;;;;;;5015716;28;20121;-84
2022/09/04 06:19:58;;;;;;;6.30;4.40;;;16.10;99.90;;;;;;5017586;28;20088;-83
2022/09/04 06:22:44;;;;;;;6.57;3.90;;;16.10;99.90;;;;;;5003427;28;20113;-83
2022/09/04 06:25:43;;;;;;;4.82;3.53;;;16.20;99.90;;;;;;5013736;28;20088;-83
2022/09/04 06:28:35;;;;;;;5.88;4.03;;;16.20;99.90;;;;;;5011825;28;20065;-82
2022/09/04 06:31:19;;;;;;;11.18;4.03;;;16.30;99.90;;;;;;5012500;28;20064;-83
2022/09/04 06:34:25;;;;;;;5.85;3.95;;;16.30;99.90;;;;;;5015580;28;20046;-82
2022/09/04 06:37:15;;;;;;;5.43;3.75;;;16.30;99.90;;;;;;5005369;28;20050;-84
2022/09/04 06:39:48;;;;;;;7.00;4.10;;;16.30;99.90;;;;;;5017975;28;20134;-83
2022/09/04 06:42:24;;;;;;;5.00;3.50;;;16.40;99.90;;;;;;5015495;28;20104;-83
2022/09/04 06:45:10;;;;;;;4.88;3.85;;;16.40;99.90;;;;;;5017803;28;20117;-83
2022/09/04 06:47:56;;;;;;;6.90;3.92;;;16.40;99.90;;;;;;5016012;28;20109;-84
2022/09/04 06:50:44;;;;;;;10.15;4.20;;;16.40;99.90;;;;;;5017191;28;20046;-84
2022/09/04 06:53:26;;;;;;;5.75;4.20;;;16.50;99.90;;;;;;5016957;28;20069;-82
2022/09/04 06:56:03;;;;;;;6.07;3.85;;;16.50;99.90;;;;;;5015433;28;20053;-83
2022/09/04 06:59:13;;;;;;;8.00;3.88;;;16.60;99.90;;;;;;5015969;28;20049;-83
2022/09/04 07:01:51;;;;;;;;;;;16.60;99.90;;;;;;5016852;28;20085;-83
2022/09/04 07:04:52;;;;;;;7.65;3.70;;;16.70;99.90;;;;;;5017827;28;19925;-83
2022/09/04 07:07:37;;;;;;;12.45;3.83;;;16.70;99.90;;;;;;4997463;28;20054;-83
2022/09/04 07:10:10;;;;;;;6.57;3.60;;;16.80;99.90;;;;;;5014303;28;20046;-84
2022/09/04 07:13:03;;;;;;;7.82;3.70;;;16.90;99.90;;;;;;5015291;28;20125;-83
2022/09/04 07:16:08;;;;;;;4.45;3.63;;;16.90;99.90;;;;;;5017062;28;20077;-83
2022/09/04 07:18:56;;;;;;;7.07;4.40;;;17.00;99.90;;;;;;5015006;28;20053;-83
2022/09/04 07:21:51;;;;;;;9.82;3.13;;;17.10;99.90;;;;;;5015618;28;20137;-84
2022/09/04 07:24:49;;;;;;;3.70;2.95;;;17.20;99.90;;;;;;4988224;28;20076;-81
2022/09/04 07:27:56;;;;;;;3.47;3.13;;;17.20;99.90;;;;;;4984638;28;20137;-81
2022/09/04 07:30:26;;;;;;;15.73;3.25;;;17.30;99.90;;;;;;5012918;28;20077;-81
2022/09/04 07:33:05;;;;;;;4.60;3.20;;;17.40;99.90;;;;;;5017604;28;20061;-83
2022/09/04 07:35:50;;;;;;;6.43;3.53;;;17.40;99.90;;;;;;5018881;28;20293;-83
2022/09/04 07:38:50;;;;;;;10.20;3.60;;;17.50;99.90;;;;;;5019833;28;20057;-83
2022/09/04 07:41:23;;;;;;;;;;;17.60;99.90;;;;;;5021639;28;20058;-83
2022/09/04 07:44:03;;;;;;;7.18;3.30;;;17.60;99.90;;;;;;5022379;28;19952;-83
2022/09/04 07:46:50;;;;;;;;;;;17.70;99.90;;;;;;5020970;28;20077;-84
2022/09/04 07:49:29;;;;;;;6.13;3.28;;;17.70;99.90;;;;;;5014477;28;20299;-82
2022/09/04 07:52:02;;;;;;;5.32;3.05;;;17.80;99.90;;;;;;5020344;28;20104;-82
2022/09/04 07:54:38;;;;;;;4.25;3.60;;;17.90;99.90;;;;;;5021182;28;20088;-83
2022/09/04 07:57:29;;;;;;;5.40;3.72;;;17.90;99.90;;;;;;5021763;28;20062;-83
2022/09/04 08:00:09;;;;;;;9.00;3.90;;;18.00;99.90;;;;;;5003128;28;20058;-83
2022/09/04 08:02:55;;;;;;;6.93;4.07;;;18.00;99.90;;;;;;5022895;28;20534;-82
2022/09/04 08:05:43;;;;;;;6.20;3.67;;;18.10;99.90;;;;;;5022310;28;20050;-83
2022/09/04 08:08:39;;;;;;;8.00;3.55;;;18.10;99.90;;;;;;5020815;28;20053;-82
2022/09/04 08:11:28;;;;;;;8.48;4.13;;;18.20;99.90;;;;;;5022618;28;20057;-84
2022/09/04 08:14:13;;;;;;;6.00;3.65;;;18.20;99.90;;;;;;5021855;28;20050;-83
2022/09/04 08:16:55;;;;;;;11.38;3.95;;;18.30;99.90;;;;;;5020830;28;20417;-83
2022/09/04 08:19:54;;;;;;;6.10;3.47;;;18.30;99.90;;;;;;5021221;28;20085;-82
2022/09/04 08:22:46;;;;;;;5.35;3.83;;;18.30;99.90;;;;;;5016820;28;20104;-83
2022/09/04 08:25:22;;;;;;;5.30;3.40;;;18.40;99.90;;;;;;5017549;28;20069;-84
2022/09/04 08:28:19;;;;;;;5.78;3.55;;;18.40;99.90;;;;;;5021447;28;20128;-84
2022/09/04 08:31:10;;;;;;;7.47;3.60;;;18.50;99.90;;;;;;5023891;28;20131;-84
2022/09/04 08:33:43;;;;;;;4.07;3.30;;;18.50;99.90;;;;;;5000725;28;20050;-83
2022/09/04 08:36:22;;;;;;;6.43;3.70;;;18.60;99.90;;;;;;5023289;28;20057;-83
2022/09/04 08:39:30;;;;;;;8.68;3.65;;;18.60;99.90;;;;;;5020481;28;20050;-84
2022/09/04 08:42:25;;;;;;;4.15;3.75;;;18.70;99.90;;;;;;4952132;29;20051;-83
2022/09/04 08:45:16;;;;;;;4.60;3.22;;;18.80;99.90;;;;;;5026729;28;20081;-83
2022/09/04 08:47:58;;;;;;;6.97;3.45;;;18.90;99.90;;;;;;5032257;28;20069;-83
2022/09/04 08:50:38;;;;;;;8.98;3.95;;;18.90;99.90;;;;;;5018191;28;20050;-83
2022/09/04 08:53:24;;;;;;;3.28;2.30;;;19.00;99.90;;;;;;5025813;28;20060;-86
2022/09/04 08:56:05;;;;;;;4.97;2.80;;;19.00;99.90;;;;;;5027348;28;20777;-82
2022/09/04 08:58:50;;;;;;;;;;;19.10;99.90;;;;;;5024369;28;20048;-82
2022/09/04 09:02:00;;;;;;;4.40;2.70;;;19.10;99.90;;;;;;5015779;28;20375;-83
2022/09/04 09:04:48;;;;;;;6.18;3.03;;;19.20;99.90;;;;;;5025261;28;20085;-82
2022/09/04 09:07:33;;;;;;;5.20;2.47;;;19.20;99.90;;;;;;5023891;28;20066;-81
2022/09/04 09:10:09;;;;;;;3.20;2.22;;;19.30;99.90;;;;;;5021336;28;20137;-78
2022/09/04 09:12:51;;;;;;;3.65;2.88;;;19.30;99.90;;;;;;5020157;28;20108;-79
2022/09/04 09:15:20;;;;;;;3.65;2.88;;;19.40;99.90;;;;;;5021383;28;20058;-80
2022/09/04 09:18:00;;;;;;;3.08;2.20;;;19.40;99.90;;;;;;5024543;28;20058;-80
2022/09/04 09:20:37;;;;;;;5.65;3.10;;;19.50;99.90;;;;;;5018342;28;20077;-80
2022/09/04 09:23:21;;;;;;;4.13;2.80;;;19.50;99.90;;;;;;5018960;28;20157;-80
2022/09/04 09:26:22;;;;;;;5.10;2.85;;;19.60;99.90;;;;;;5018848;28;20057;-80
2022/09/04 09:29:29;;;;;;;5.93;3.00;;;19.60;99.90;;;;;;5015361;28;20112;-80
2022/09/04 09:32:12;;;;;;;4.00;2.75;;;19.70;99.90;;;;;;5016998;28;20085;-83
2022/09/04 09:34:53;;;;;;;5.63;3.05;;;19.80;99.90;;;;;;5005521;28;20530;-83
2022/09/04 09:38:00;;;;;;;5.10;2.58;;;19.90;99.90;;;;;;5018968;28;20054;-83
2022/09/04 09:40:59;;;;;;;4.22;2.67;;;20.00;99.90;;;;;;4958297;29;20055;-83
2022/09/04 09:43:26;;;;;;;3.08;2.15;;;20.10;99.90;;;;;;5017391;28;20060;-84
2022/09/04 09:46:14;;;;;;;6.05;2.90;;;20.10;99.90;;;;;;5017400;28;20049;-83
2022/09/04 09:49:10;;;;;;;7.15;3.58;;;20.20;99.90;;;;;;5019836;28;20073;-84
2022/09/04 09:52:13;;;;;;;2.63;2.42;;;20.20;99.90;;;;;;5024155;28;20136;-83
2022/09/04 09:55:20;;;;;;;3.35;2.28;;;20.30;99.90;;;;;;5025384;28;20084;-81
2022/09/04 09:58:13;;;;;;;3.00;2.40;;;20.30;99.90;;;;;;5020920;28;20054;-83
2022/09/04 10:01:02;;;;;;;2.70;2.20;;;20.40;99.90;;;;;;4991552;28;20123;-82
2022/09/04 10:03:55;;;;;;;3.25;2.38;;;20.50;99.90;;;;;;5020218;28;20054;-81
2022/09/04 10:06:59;;;;;;;3.65;2.15;;;20.60;99.90;;;;;;5021846;28;20061;-81
2022/09/04 10:10:16;;;;;;;3.50;3.05;;;20.60;99.90;;;;;;5019856;28;20089;-82
2022/09/04 10:13:00;;;;;;;4.53;2.80;;;20.70;99.90;;;;;;5008987;28;20050;-82
2022/09/04 10:16:04;;;;;;;2.90;2.17;;;20.70;99.90;;;;;;5010958;28;20105;-83
2022/09/04 10:18:57;;;;;;;3.10;2.67;;;20.90;99.90;;;;;;5019694;28;20050;-83
2022/09/04 10:22:01;;;;;;;8.43;2.65;;;20.90;99.90;;;;;;5007336;28;20132;-83
2022/09/04 10:25:06;;;;;;;7.88;2.22;;;20.90;99.90;;;;;;5020840;28;20114;-84
2022/09/04 10:28:03;;;;;;;3.17;1.90;;;21.00;99.90;;;;;;4982625;28;20085;-81
2022/09/04 10:30:56;;;;;;;2.65;2.42;;;21.00;99.90;;;;;;5016322;28;20089;-78
2022/09/04 10:33:29;;;;;;;5.05;2.30;;;21.00;99.90;;;;;;5013316;28;20046;-81
2022/09/04 10:36:08;;;;;;;3.30;2.22;;;21.10;99.90;;;;;;5011598;28;20405;-79
2022/09/04 10:41:47;;;;;;;4.18;2.30;;;21.30;99.90;;;;;;5021358;28;20145;-79
2022/09/04 10:44:37;;;;;;;5.88;2.25;;;21.30;99.90;;;;;;5021253;28;20549;-81
2022/09/04 10:47:26;;;;;;;6.22;2.55;;;21.30;99.90;;;;;;5019365;28;20089;-80
2022/09/04 10:50:02;;;;;;;3.92;1.60;;;21.40;99.90;;;;;;5019887;28;20096;-79
2022/09/04 10:52:41;;;;;;;4.00;2.20;;;21.50;99.90;;;;;;5020885;28;20066;-80
2022/09/04 10:55:49;;;;;;;4.75;2.13;;;21.50;99.90;;;;;;5010216;28;20061;-83
2022/09/04 10:58:38;;;;;;;3.92;1.58;;;21.60;99.90;;;;;;4975200;28;20124;-85
2022/09/04 11:01:26;;;;;;;3.30;1.73;;;21.70;99.90;;;;;;5021311;28;20053;-82
2022/09/04 11:04:26;;;;;;;3.00;1.80;;;21.80;99.90;;;;;;5019367;28;20074;-83
2022/09/04 11:07:17;;;;;;;3.50;1.95;;;22.00;99.90;;;;;;5018398;28;20053;-82
2022/09/04 11:10:11;;;;;;;3.83;1.58;;;22.10;99.90;;;;;;5020285;28;20065;-81
2022/09/04 11:13:08;;;;;;;2.05;0.73;;;22.10;99.90;;;;;;5018808;28;20050;-81
2022/09/04 11:15:51;;;;;;;7.03;1.65;;;22.10;99.90;;;;;;5003628;28;20042;-82
2022/09/04 11:18:39;;;;;;;3.95;1.40;;;22.10;99.90;;;;;;5023417;28;20081;-83
2022/09/04 11:21:49;;;;;;;2.10;1.45;;;22.30;99.90;;;;;;5021378;28;20587;-83
2022/09/04 11:24:54;;;;;;;3.33;1.70;;;22.50;99.90;;;;;;4992110;28;20053;-84
2022/09/04 11:27:58;;;;;;;3.60;1.27;;;22.40;99.90;;;;;;5025174;28;20057;-83
2022/09/04 11:30:47;;;;;;;2.17;1.15;;;22.60;99.90;;;;;;5024734;28;20052;-83
2022/09/04 11:33:36;;;;;;;2.60;1.40;;;22.60;99.90;;;;;;5025566;28;20041;-81
2022/09/04 11:36:25;;;;;;;4.57;2.35;;;22.60;99.90;;;;;;5024655;28;20046;-83
2022/09/04 11:39:07;;;;;;;1.90;1.13;;;22.50;99.90;;;;;;5011201;28;20044;-83
2022/09/04 11:42:16;;;;;;;2.53;1.40;;;22.50;99.90;;;;;;5025052;28;20081;-81
2022/09/04 11:45:09;;;;;;;1.67;1.25;;;22.50;99.90;;;;;;5026452;28;20082;-83
2022/09/04 11:47:43;;;;;;;3.83;1.30;;;22.50;99.90;;;;;;5015266;28;20066;-82
2022/09/04 11:50:42;;;;;;;1.65;1.00;;;22.60;99.90;;;;;;5019473;28;20077;-83
2022/09/04 11:53:37;;;;;;;2.00;1.30;;;22.60;99.90;;;;;;5022499;28;20550;-83
2022/09/04 11:56:28;;;;;;;4.78;1.85;;;22.50;99.90;;;;;;5019730;28;20076;-82
2022/09/04 11:59:30;;;;;;;3.00;1.10;;;22.60;99.90;;;;;;5025159;28;20046;-82
2022/09/04 12:02:28;;;;;;;2.55;1.60;;;22.50;99.90;;;;;;5021614;28;20058;-83
2022/09/04 12:05:52;;;;;;;2.72;1.10;;;22.60;99.90;;;;;;5025267;28;20105;-82
2022/09/04 12:08:37;;;;;;;2.95;1.40;;;22.80;99.90;;;;;;4962476;29;20055;-83
2022/09/04 12:11:48;;;;;;;4.32;1.27;;;22.80;99.90;;;;;;4946795;29;20044;-82
2022/09/04 12:14:42;;;;;;;1.27;1.10;;;22.80;99.90;;;;;;5016625;28;20054;-83
2022/09/04 12:17:28;;;;;;;5.85;1.30;;;22.90;99.90;;;;;;5022701;28;20064;-84
2022/09/04 12:20:34;;;;;;;2.22;1.33;;;23.00;99.90;;;;;;5022897;28;20500;-84
2022/09/04 12:23:31;;;;;;;3.38;1.10;;;23.00;99.90;;;;;;5024079;28;20080;-83
2022/09/04 12:26:16;;;;;;;2.03;1.20;;;23.10;99.90;;;;;;5016643;28;20065;-82
2022/09/04 12:29:08;;;;;;;3.08;1.30;;;23.10;99.90;;;;;;5015624;28;20050;-83
2022/09/04 12:32:09;;;;;;;1.42;1.25;;;23.10;99.90;;;;;;5014908;28;20050;-82
2022/09/04 12:34:59;;;;;;;2.80;1.52;;;23.10;99.90;;;;;;5018632;28;20054;-84
2022/09/04 12:37:59;;;;;;;1.80;1.20;;;23.10;99.90;;;;;;5013182;28;20061;-83
2022/09/04 12:40:41;;;;;;;2.85;1.10;;;23.20;99.90;;;;;;5010305;28;20076;-82
2022/09/04 12:43:19;;;;;;;;;;;23.20;99.90;;;;;;5020481;28;20054;-81
2022/09/04 12:46:02;;;;;;;2.20;1.20;;;23.30;99.90;;;;;;5018259;28;19925;-81
2022/09/04 12:48:47;;;;;;;4.32;1.65;;;23.30;99.90;;;;;;5020027;28;20065;-83
2022/09/04 12:51:20;;;;;;;2.35;1.17;;;23.30;99.90;;;;;;5023576;28;20053;-83
2022/09/04 12:54:20;;;;;;;2.67;1.00;;;23.30;99.90;;;;;;5021863;28;20073;-83
2022/09/04 12:56:52;;;;;;;1.70;0.80;;;23.30;99.90;;;;;;5023283;28;20046;-84
2022/09/04 12:59:59;;;;;;;2.17;1.05;;;23.30;99.90;;;;;;5022838;28;20112;-83
2022/09/04 13:02:59;;;;;;;2.25;1.55;;;23.60;99.90;;;;;;5023366;28;20427;-83
2022/09/04 13:06:03;;;;;;;1.55;0.93;;;23.60;99.90;;;;;;5022449;28;20053;-83
2022/09/04 13:08:45;;;;;;;6.90;2.22;;;23.60;99.90;;;;;;5022850;28;20053;-83
2022/09/04 13:11:29;;;;;;;6.18;5.38;;;23.80;99.90;;;;;;5022699;28;20109;-83
2022/09/04 13:14:20;;;;;;;12.15;8.27;;;23.80;99.90;;;;;;5022602;28;20050;-84
2022/09/04 13:16:56;;;;;;;1.67;1.15;;;23.80;99.90;;;;;;5019871;28;20069;-83
2022/09/04 13:19:28;;;;;;;2.47;1.35;;;23.90;99.90;;;;;;5021618;28;20050;-82
2022/09/04 13:22:15;;;;;;;5.80;1.27;;;23.90;99.90;;;;;;5021692;28;20050;-83
2022/09/04 13:25:16;;;;;;;2.55;2.10;;;24.00;99.90;;;;;;5017474;28;20093;-80
2022/09/04 13:28:02;;;;;;;3.25;2.00;;;24.00;99.90;;;;;;5020305;28;20058;-82
2022/09/04 13:30:30;;;;;;;3.50;1.30;;;23.90;99.90;;;;;;5019896;28;20057;-83
2022/09/04 13:33:38;;;;;;;3.47;1.20;;;24.00;99.90;;;;;;5022365;28;20050;-83
2022/09/04 13:36:17;;;;;;;1.10;1.00;;;24.00;99.90;;;;;;5021347;28;20070;-84
2022/09/04 13:39:15;;;;;;;1.40;1.27;;;24.00;99.90;;;;;;5018492;28;20078;-83
2022/09/04 13:42:36;;;;;;;4.28;1.10;;;24.00;99.90;;;;;;5020208;28;20050;-83
2022/09/04 13:45:11;;;;;;;2.70;1.10;;;24.10;99.90;;;;;;4971845;28;20439;-82
2022/09/04 13:47:53;;;;;;;4.03;1.40;;;24.30;99.90;;;;;;5021732;28;20053;-80
2022/09/04 13:50:35;;;;;;;1.33;1.00;;;24.30;99.90;;;;;;5018369;28;20073;-82
2022/09/04 13:53:11;;;;;;;2.30;0.93;;;24.30;99.90;;;;;;4999730;28;20053;-84
2022/09/04 13:55:41;;;;;;;2.67;1.10;;;24.30;99.90;;;;;;5018490;28;20117;-82
2022/09/04 13:58:32;;;;;;;4.15;1.30;;;24.30;99.90;;;;;;5018164;28;20050;-83
2022/09/04 14:01:01;;;;;;;1.77;1.10;;;24.20;99.90;;;;;;5014685;28;20558;-84
2022/09/04 14:03:47;;;;;;;2.70;1.02;;;24.20;99.90;;;;;;5020806;28;20046;-84
2022/09/04 14:06:18;;;;;;;1.17;0.90;;;24.20;99.90;;;;;;5008761;28;20122;-82
2022/09/04 14:09:02;;;;;;;1.38;1.10;;;24.20;99.90;;;;;;5013266;28;20049;-83
2022/09/04 14:11:56;;;;;;;2.38;1.00;;;24.20;99.90;;;;;;5000312;28;20047;-83
2022/09/04 14:14:48;;;;;;;2.72;1.20;;;24.30;99.90;;;;;;5013883;28;20053;-81
2022/09/04 14:17:25;;;;;;;2.67;1.02;;;24.30;99.90;;;;;;5005781;28;20050;-84
2022/09/04 14:19:56;;;;;;;3.05;1.02;;;24.30;99.90;;;;;;5009840;28;20073;-83
2022/09/04 14:22:48;;;;;;;1.25;0.88;;;24.40;99.90;;;;;;5015930;28;20111;-84
2022/09/04 14:25:58;;;;;;;2.28;1.08;;;24.50;99.90;;;;;;5004477;28;20081;-83
2022/09/04 14:29:06;;;;;;;1.23;0.70;;;24.50;99.90;;;;;;5018955;28;20049;-82
2022/09/04 14:32:01;;;;;;;1.85;0.93;;;24.50;99.90;;;;;;4949719;28;20051;-81
2022/09/04 14:34:39;;;;;;;1.05;0.80;;;24.40;99.90;;;;;;5016026;28;20137;-83
2022/09/04 14:37:47;;;;;;;3.42;1.52;;;24.40;99.90;;;;;;5016050;28;20561;-82
2022/09/04 14:40:38;;;;;;;1.65;1.00;;;24.30;99.90;;;;;;5015165;28;20046;-83